Atlantic Osprey — CFH8950 — position and weather

sailwx.info

Track history (hours):
 
Tides and Currents Weather Stations Pressure Air Temp Water Temp Dewpoint Dewpoint Depression Visibility Wind Speed Wind Dir Waves Ship Positions

Atlantic Osprey

Last reported at 2017-Jun-12 18:21 UTC. Time now 2017-Jun-26 21:02 UTC.
Position N 47°32' W 052°27'.
Warning: this ship's position is 14 days out of date.

Length 3 m; draft 6.3 m.

Type: Tug. MMSI: 316004850.

Date/timePositionNaut miles runAvg speedWind from/ knotsBaromVisibWave heightAir tempDewpointWater temp
2017-Jun-12 18:21N 47°32' W 052°27'511.0
2017-Jun-12 17:57N 47°33' W 052°34'6 8.0
2017-Jun-12 17:14N 47°34' W 052°42'0 0.0
2017-Jun-12 16:42N 47°34' W 052°42'0 0.0
2017-Jun-12 16:13N 47°34' W 052°42'0 0.0
2017-Jun-12 15:59N 47°34' W 052°42'0 0.0
2017-Jun-12 15:21N 47°34' W 052°42'0 0.0
2017-Jun-12 14:48N 47°34' W 052°42'0 0.0
2017-Jun-12 13:24N 47°34' W 052°42'0 0.0
2017-Jun-12 12:55N 47°34' W 052°42'0 0.0
2017-Jun-12 12:26N 47°34' W 052°42'0 0.0
2017-Jun-12 11:57N 47°34' W 052°42'0 0.0
2017-Jun-12 11:06N 47°34' W 052°42'0 0.0
2017-Jun-12 10:55N 47°34' W 052°42'0 0.0
2017-Jun-12 10:26N 47°34' W 052°42'0 0.0
2017-Jun-12 10:00N 47°34' W 052°42'0 0.0
2017-Jun-12 09:27N 47°34' W 052°42'0 0.0
2017-Jun-12 08:56N 47°34' W 052°42'0 0.0
2017-Jun-12 08:27N 47°34' W 052°42'0 0.0
2017-Jun-12 07:59N 47°34' W 052°42'0 0.0
2017-Jun-12 07:27N 47°34' W 052°42'0 0.0
2017-Jun-12 07:00N 47°34' W 052°42'0 0.0
2017-Jun-12 06:25N 47°34' W 052°42'0 0.0
2017-Jun-12 05:59N 47°34' W 052°42'0 0.6
2017-Jun-12 05:19N 47°34' W 052°42'0 0.0
2017-Jun-12 04:56N 47°34' W 052°42'0 0.0
2017-Jun-12 04:30N 47°34' W 052°42'0 0.0
2017-Jun-12 03:58N 47°34' W 052°42'0 0.0
2017-Jun-12 00:51N 47°34' W 052°42'0 0.3
2017-Jun-12 00:25N 47°34' W 052°42'510.5
2017-Jun-11 23:55N 47°33' W 052°34'  
2017-Jun-07 22:54N 47°32' W 052°26'613.7
2017-Jun-07 22:29N 47°33' W 052°34'5 4.1
2017-Jun-07 21:13N 47°34' W 052°42'0 0.0
2017-Jun-07 20:59N 47°34' W 052°42'0 0.0
2017-Jun-07 20:27N 47°34' W 052°42'0 0.0
2017-Jun-07 12:05N 47°34' W 052°42'0 0.0
2017-Jun-07 11:49N 47°34' W 052°42'0 0.0
2017-Jun-07 11:14N 47°34' W 052°42'0 0.0
2017-Jun-07 11:00N 47°34' W 052°42'0 0.0
2017-Jun-07 10:30N 47°34' W 052°42'0 0.0
2017-Jun-07 09:49N 47°34' W 052°42'0 0.0
2017-Jun-07 09:27N 47°34' W 052°42'0 0.0
2017-Jun-07 08:57N 47°34' W 052°42'0 0.0
2017-Jun-07 08:26N 47°34' W 052°42'0 0.0
2017-Jun-07 07:56N 47°34' W 052°42'0 0.0
2017-Jun-07 07:26N 47°34' W 052°42'0 0.0
2017-Jun-07 07:01N 47°34' W 052°42'0 0.0
2017-Jun-07 06:20N 47°34' W 052°42'0 0.0
2017-Jun-07 06:00N 47°34' W 052°42'0 0.0
2017-Jun-07 05:29N 47°34' W 052°42'0 0.0
2017-Jun-07 04:59N 47°34' W 052°42'0 0.0
2017-Jun-07 04:29N 47°34' W 052°42'0 0.0
2017-Jun-07 03:59N 47°34' W 052°42'0 0.0
2017-Jun-07 03:28N 47°34' W 052°42'0 0.0
2017-Jun-07 02:57N 47°34' W 052°42'0 0.0
2017-Jun-07 02:28N 47°34' W 052°42'0 0.0
2017-Jun-07 02:00N 47°34' W 052°42'0 0.0
2017-Jun-07 01:29N 47°34' W 052°42'2 3.4
2017-Jun-07 00:59N 47°34' W 052°39'713.8
2017-Jun-07 00:29N 47°33' W 052°29'  
Track history (hours):
 
Tides and Currents Weather Stations Pressure Air Temp Water Temp Dewpoint Dewpoint Depression Visibility Wind Speed Wind Dir Waves Ship Positions

Atlantic Osprey

Last reported at 2017-Jun-12 18:21 UTC. Time now 2017-Jun-26 21:02 UTC.
Position N 47°32' W 052°27'.
Warning: this ship's position is 14 days out of date.

Length 3 m; draft 6.3 m.

Type: Tug. MMSI: 316004850.

Date/timePositionNaut miles runAvg speedWind from/ knotsBaromVisibWave heightAir tempDewpointWater temp
2017-Jun-12 18:21N 47°32' W 052°27'511.0
2017-Jun-12 17:57N 47°33' W 052°34'6 8.0
2017-Jun-12 17:14N 47°34' W 052°42'0 0.0
2017-Jun-12 16:42N 47°34' W 052°42'0 0.0
2017-Jun-12 16:13N 47°34' W 052°42'0 0.0
2017-Jun-12 15:59N 47°34' W 052°42'0 0.0
2017-Jun-12 15:21N 47°34' W 052°42'0 0.0
2017-Jun-12 14:48N 47°34' W 052°42'0 0.0
2017-Jun-12 13:24N 47°34' W 052°42'0 0.0
2017-Jun-12 12:55N 47°34' W 052°42'0 0.0
2017-Jun-12 12:26N 47°34' W 052°42'0 0.0
2017-Jun-12 11:57N 47°34' W 052°42'0 0.0
2017-Jun-12 11:06N 47°34' W 052°42'0 0.0
2017-Jun-12 10:55N 47°34' W 052°42'0 0.0
2017-Jun-12 10:26N 47°34' W 052°42'0 0.0
2017-Jun-12 10:00N 47°34' W 052°42'0 0.0
2017-Jun-12 09:27N 47°34' W 052°42'0 0.0
2017-Jun-12 08:56N 47°34' W 052°42'0 0.0
2017-Jun-12 08:27N 47°34' W 052°42'0 0.0
2017-Jun-12 07:59N 47°34' W 052°42'0 0.0
2017-Jun-12 07:27N 47°34' W 052°42'0 0.0
2017-Jun-12 07:00N 47°34' W 052°42'0 0.0
2017-Jun-12 06:25N 47°34' W 052°42'0 0.0
2017-Jun-12 05:59N 47°34' W 052°42'0 0.6
2017-Jun-12 05:19N 47°34' W 052°42'0 0.0
2017-Jun-12 04:56N 47°34' W 052°42'0 0.0
2017-Jun-12 04:30N 47°34' W 052°42'0 0.0
2017-Jun-12 03:58N 47°34' W 052°42'0 0.0
2017-Jun-12 00:51N 47°34' W 052°42'0 0.3
2017-Jun-12 00:25N 47°34' W 052°42'510.5
2017-Jun-11 23:55N 47°33' W 052°34'  
2017-Jun-07 22:54N 47°32' W 052°26'613.7
2017-Jun-07 22:29N 47°33' W 052°34'5 4.1
2017-Jun-07 21:13N 47°34' W 052°42'0 0.0
2017-Jun-07 20:59N 47°34' W 052°42'0 0.0
2017-Jun-07 20:27N 47°34' W 052°42'0 0.0
2017-Jun-07 12:05N 47°34' W 052°42'0 0.0
2017-Jun-07 11:49N 47°34' W 052°42'0 0.0
2017-Jun-07 11:14N 47°34' W 052°42'0 0.0
2017-Jun-07 11:00N 47°34' W 052°42'0 0.0
2017-Jun-07 10:30N 47°34' W 052°42'0 0.0
2017-Jun-07 09:49N 47°34' W 052°42'0 0.0
2017-Jun-07 09:27N 47°34' W 052°42'0 0.0
2017-Jun-07 08:57N 47°34' W 052°42'0 0.0
2017-Jun-07 08:26N 47°34' W 052°42'0 0.0
2017-Jun-07 07:56N 47°34' W 052°42'0 0.0
2017-Jun-07 07:26N 47°34' W 052°42'0 0.0
2017-Jun-07 07:01N 47°34' W 052°42'0 0.0
2017-Jun-07 06:20N 47°34' W 052°42'0 0.0
2017-Jun-07 06:00N 47°34' W 052°42'0 0.0
2017-Jun-07 05:29N 47°34' W 052°42'0 0.0
2017-Jun-07 04:59N 47°34' W 052°42'0 0.0
2017-Jun-07 04:29N 47°34' W 052°42'0 0.0
2017-Jun-07 03:59N 47°34' W 052°42'0 0.0
2017-Jun-07 03:28N 47°34' W 052°42'0 0.0
2017-Jun-07 02:57N 47°34' W 052°42'0 0.0
2017-Jun-07 02:28N 47°34' W 052°42'0 0.0
2017-Jun-07 02:00N 47°34' W 052°42'0 0.0
2017-Jun-07 01:29N 47°34' W 052°42'2 3.4
2017-Jun-07 00:59N 47°34' W 052°39'713.8
2017-Jun-07 00:29N 47°33' W 052°29'  

Dump ship's entire track history